createdAt,value
2023-04-19T00:01:43.875Z,0.60
2023-04-19T00:04:16.225Z,0.40
2023-04-19T00:06:48.295Z,0.70
2023-04-19T00:09:21.185Z,0.40
2023-04-19T00:11:53.530Z,0.50
2023-04-19T00:14:25.327Z,0.53
2023-04-19T00:16:56.754Z,0.40
2023-04-19T00:19:27.803Z,0.30
2023-04-19T00:21:58.842Z,0.30
2023-04-19T00:24:31.891Z,0.50
2023-04-19T00:27:03.164Z,0.50
2023-04-19T00:29:34.279Z,0.53
2023-04-19T00:32:06.748Z,0.50
2023-04-19T00:34:37.621Z,0.33
2023-04-19T00:37:08.642Z,0.40
2023-04-19T00:39:41.255Z,0.40
2023-04-19T00:42:12.816Z,0.53
2023-04-19T00:44:43.856Z,0.50
2023-04-19T00:47:15.082Z,0.47
2023-04-19T00:49:46.355Z,0.50
2023-04-19T00:52:17.564Z,0.50
2023-04-19T00:54:51.083Z,0.50
2023-04-19T00:57:22.584Z,0.70
2023-04-19T00:59:53.590Z,0.43
2023-04-19T01:02:24.481Z,0.47
2023-04-19T01:04:56.784Z,0.50
2023-04-19T01:07:27.847Z,0.60
2023-04-19T01:10:00.778Z,0.60
2023-04-19T01:12:32.337Z,0.50
2023-04-19T01:15:03.145Z,0.40
2023-04-19T01:17:35.821Z,0.53
2023-04-19T01:20:08.908Z,0.77
2023-04-19T01:22:42.464Z,0.60
2023-04-19T01:25:14.107Z,0.40
2023-04-19T01:27:45.852Z,0.50
2023-04-19T01:30:17.312Z,0.53
2023-04-19T01:32:48.400Z,0.70
2023-04-19T01:35:19.956Z,0.47
2023-04-19T01:37:54.141Z,0.47
2023-04-19T01:40:27.388Z,0.60
2023-04-19T01:42:58.421Z,0.73
2023-04-19T01:45:30.253Z,1.33
2023-04-19T01:48:02.647Z,0.70
2023-04-19T01:50:34.069Z,1.10
2023-04-19T01:53:07.274Z,0.63
2023-04-19T01:55:38.849Z,0.50
2023-04-19T01:58:10.862Z,0.70
2023-04-19T02:00:42.992Z,0.60
2023-04-19T02:03:14.775Z,0.73
2023-04-19T02:05:46.268Z,0.60
2023-04-19T02:08:20.057Z,0.40
2023-04-19T02:10:51.246Z,0.67
2023-04-19T02:13:22.826Z,0.60
2023-04-19T02:15:54.617Z,0.70
2023-04-19T02:18:27.978Z,0.90
2023-04-19T02:20:59.566Z,0.67
2023-04-19T02:23:33.612Z,0.83
2023-04-19T02:26:05.872Z,0.93
2023-04-19T02:28:37.552Z,1.00
2023-04-19T02:31:10.512Z,1.10
2023-04-19T02:33:42.066Z,0.73
2023-04-19T02:36:13.730Z,0.87
2023-04-19T02:38:49.317Z,1.17
2023-04-19T02:41:20.696Z,1.00
2023-04-19T02:43:52.349Z,0.90
2023-04-19T02:46:23.925Z,1.10
2023-04-19T02:48:55.672Z,1.37
2023-04-19T02:51:28.209Z,1.00
2023-04-19T02:54:01.414Z,0.90
2023-04-19T02:56:32.865Z,0.80
2023-04-19T02:59:06.032Z,1.10
2023-04-19T03:01:37.790Z,0.90
2023-04-19T03:04:09.826Z,1.27
2023-04-19T03:06:43.035Z,1.40
2023-04-19T03:09:17.139Z,1.10
2023-04-19T03:11:49.113Z,0.90
2023-04-19T03:14:20.497Z,1.13
2023-04-19T03:16:51.872Z,1.27
2023-04-19T03:19:24.000Z,1.50
2023-04-19T03:21:55.118Z,1.10
2023-04-19T03:24:36.168Z,1.10
2023-04-19T03:27:09.461Z,1.10
2023-04-19T03:29:40.983Z,0.97
2023-04-19T03:32:13.480Z,1.07
2023-04-19T03:34:45.167Z,1.10
2023-04-19T03:37:17.779Z,1.10
2023-04-19T03:39:51.756Z,1.00
2023-04-19T03:42:24.268Z,1.20
2023-04-19T03:44:56.389Z,1.20
2023-04-19T03:47:28.075Z,1.20
2023-04-19T03:49:59.504Z,1.03
2023-04-19T03:52:31.628Z,1.10
2023-04-19T03:55:06.000Z,1.10
2023-04-19T03:57:37.439Z,1.77
2023-04-19T04:00:10.193Z,1.43
2023-04-19T04:02:41.969Z,1.20
2023-04-19T04:05:14.634Z,1.20
2023-04-19T04:07:46.953Z,1.17
2023-04-19T04:10:20.772Z,0.97
2023-04-19T04:12:52.219Z,1.10
2023-04-19T04:15:24.351Z,1.10
2023-04-19T04:17:55.990Z,0.80
2023-04-19T04:20:27.845Z,1.00
2023-04-19T04:22:59.615Z,1.00
2023-04-19T04:25:34.155Z,1.20
2023-04-19T04:28:05.413Z,1.00
2023-04-19T04:30:37.927Z,1.13
2023-04-19T04:33:10.194Z,1.10
2023-04-19T04:35:43.639Z,1.10
2023-04-19T04:38:24.053Z,1.10
2023-04-19T04:41:01.047Z,0.90
2023-04-19T04:43:33.355Z,1.00
2023-04-19T04:46:05.307Z,1.10
2023-04-19T04:48:36.930Z,1.40
2023-04-19T04:51:08.864Z,0.90
2023-04-19T04:53:40.568Z,1.03
2023-04-19T04:56:14.307Z,1.30
2023-04-19T04:58:45.791Z,0.90
2023-04-19T05:01:20.941Z,1.00
2023-04-19T05:03:53.325Z,0.77
2023-04-19T05:06:25.053Z,1.00
2023-04-19T05:08:56.721Z,1.10
2023-04-19T05:11:31.473Z,0.97
2023-04-19T05:14:03.635Z,1.10
2023-04-19T05:16:35.439Z,0.93
2023-04-19T05:19:07.035Z,0.70
2023-04-19T05:21:38.685Z,1.10
2023-04-19T05:24:11.127Z,1.03
2023-04-19T05:26:45.816Z,1.20
2023-04-19T05:29:17.230Z,1.00
2023-04-19T05:31:49.512Z,1.10
2023-04-19T05:34:22.391Z,1.00
2023-04-19T05:36:54.534Z,0.97
2023-04-19T05:39:26.352Z,1.03
2023-04-19T05:42:01.378Z,1.00
2023-04-19T05:44:33.028Z,0.80
2023-04-19T05:47:04.518Z,1.20
2023-04-19T05:49:36.092Z,0.87
2023-04-19T05:52:07.411Z,1.00
2023-04-19T05:54:38.725Z,1.00
2023-04-19T05:57:12.627Z,1.27
2023-04-19T05:59:45.120Z,0.87
2023-04-19T06:02:17.019Z,1.10
2023-04-19T06:04:49.754Z,1.20
2023-04-19T06:07:32.666Z,1.00
2023-04-19T06:10:06.604Z,1.10
2023-04-19T06:12:40.214Z,1.20
2023-04-19T06:15:12.761Z,1.50
2023-04-19T06:17:45.951Z,1.23
2023-04-19T06:20:17.663Z,1.40
2023-04-19T06:22:49.786Z,1.20
2023-04-19T06:25:21.997Z,1.67
2023-04-19T06:27:57.058Z,1.20
2023-04-19T06:30:28.890Z,1.20
2023-04-19T06:33:00.536Z,1.10
2023-04-19T06:35:32.144Z,1.20
2023-04-19T06:38:03.365Z,1.00
2023-04-19T06:40:35.518Z,1.10
2023-04-19T06:43:09.529Z,1.17
2023-04-19T06:45:41.642Z,1.63
2023-04-19T06:48:14.258Z,1.30
2023-04-19T06:50:45.891Z,1.47
2023-04-19T06:53:17.674Z,1.30
2023-04-19T06:55:49.347Z,1.40
2023-04-19T06:58:23.074Z,0.93
2023-04-19T07:00:54.659Z,0.93
2023-04-19T07:03:26.838Z,1.20
2023-04-19T07:05:59.284Z,1.27
2023-04-19T07:08:46.342Z,1.20
2023-04-19T07:11:21.935Z,0.90
2023-04-19T07:13:57.176Z,1.10
2023-04-19T07:16:28.808Z,0.80
2023-04-19T07:19:00.934Z,0.90
2023-04-19T07:21:34.345Z,1.13
2023-04-19T07:24:05.979Z,1.00
2023-04-19T07:26:38.122Z,0.83
2023-04-19T07:29:14.601Z,1.20
2023-04-19T07:31:46.258Z,1.20
2023-04-19T07:34:18.202Z,1.00
2023-04-19T07:36:50.318Z,0.90
2023-04-19T07:39:22.188Z,1.10
2023-04-19T07:41:53.703Z,1.27
2023-04-19T07:44:28.000Z,0.90
2023-04-19T07:46:59.972Z,1.10
2023-04-19T07:49:34.955Z,0.80
2023-04-19T07:52:06.950Z,1.20
2023-04-19T07:54:40.286Z,0.97
2023-04-19T07:57:12.033Z,0.97
2023-04-19T07:59:46.431Z,1.10
2023-04-19T08:02:19.664Z,1.00
2023-04-19T08:04:53.046Z,1.20
2023-04-19T08:07:24.759Z,0.93
2023-04-19T08:09:56.656Z,1.20
2023-04-19T08:12:36.346Z,1.10
2023-04-19T08:15:38.129Z,1.10
2023-04-19T08:18:05.886Z,1.23
2023-04-19T08:20:38.283Z,1.07
2023-04-19T08:23:20.623Z,0.83
2023-04-19T08:25:56.783Z,1.10
2023-04-19T08:28:28.373Z,1.00
2023-04-19T08:31:03.019Z,1.13
2023-04-19T08:33:35.551Z,0.93
2023-04-19T08:36:07.882Z,1.20
2023-04-19T08:38:39.825Z,1.03
2023-04-19T08:41:11.344Z,0.83
2023-04-19T08:43:46.184Z,1.10
2023-04-19T08:46:21.268Z,1.10
2023-04-19T08:48:53.643Z,1.10
2023-04-19T08:51:25.753Z,1.10
2023-04-19T08:53:58.692Z,1.10
2023-04-19T08:56:35.666Z,1.50
2023-04-19T08:59:18.151Z,0.90
2023-04-19T09:01:53.432Z,1.30
2023-04-19T09:04:36.334Z,1.00
2023-04-19T09:07:10.321Z,1.40
2023-04-19T09:09:56.013Z,1.10
2023-04-19T09:12:34.306Z,1.20
2023-04-19T09:15:07.778Z,1.30
2023-04-19T09:17:42.691Z,1.00
2023-04-19T09:20:14.293Z,1.23
2023-04-19T09:22:45.941Z,1.30
2023-04-19T09:25:49.342Z,1.30
2023-04-19T09:28:21.925Z,0.90
2023-04-19T09:33:40.564Z,1.20
2023-04-19T09:36:14.657Z,1.33
2023-04-19T09:38:54.945Z,1.50
2023-04-19T09:41:26.573Z,1.13
2023-04-19T09:44:08.780Z,1.07
2023-04-19T09:46:53.566Z,1.20
2023-04-19T09:49:45.499Z,1.10
2023-04-19T09:52:20.326Z,1.10
2023-04-19T09:54:54.727Z,1.20
2023-04-19T09:57:26.839Z,1.20
2023-04-19T09:59:58.284Z,1.23
2023-04-19T10:02:35.501Z,1.10
2023-04-19T10:05:20.804Z,1.47
2023-04-19T10:07:56.729Z,1.30
2023-04-19T10:10:42.030Z,1.30
2023-04-19T10:13:20.745Z,1.20
2023-04-19T10:15:59.360Z,1.27
2023-04-19T10:18:37.736Z,1.10
2023-04-19T10:21:13.875Z,1.30
2023-04-19T10:23:46.402Z,1.53
2023-04-19T10:26:18.709Z,1.10
2023-04-19T10:28:53.655Z,1.10
2023-04-19T10:31:25.507Z,0.90
2023-04-19T10:33:58.499Z,0.97
2023-04-19T10:36:32.674Z,1.20
2023-04-19T10:39:05.985Z,1.40
2023-04-19T10:42:01.194Z,1.10
2023-04-19T10:44:33.525Z,1.30
2023-04-19T10:47:05.158Z,0.90
2023-04-19T10:49:49.153Z,1.10
2023-04-19T10:52:33.610Z,1.20
2023-04-19T10:55:09.456Z,1.27
2023-04-19T10:58:08.523Z,1.00
2023-04-19T11:00:40.216Z,1.07
2023-04-19T11:03:43.657Z,1.07
2023-04-19T11:06:28.066Z,1.03
2023-04-19T11:09:01.468Z,0.90
2023-04-19T11:11:36.912Z,1.10
2023-04-19T11:14:11.505Z,0.90
2023-04-19T11:16:46.210Z,1.00
2023-04-19T11:19:20.162Z,1.07
2023-04-19T11:21:52.984Z,1.00
2023-04-19T11:24:26.819Z,1.10
2023-04-19T11:27:00.705Z,1.10
2023-04-19T11:29:32.357Z,1.10
2023-04-19T11:32:04.836Z,1.40
2023-04-19T11:34:40.428Z,1.30
2023-04-19T11:37:14.206Z,1.20
2023-04-19T11:39:53.872Z,1.23
2023-04-19T11:42:25.474Z,1.00
2023-04-19T11:44:59.402Z,1.03
2023-04-19T11:47:31.558Z,1.00
2023-04-19T11:50:38.969Z,1.20
2023-04-19T11:53:19.132Z,1.17
2023-04-19T11:55:54.272Z,1.00
2023-04-19T11:58:32.250Z,1.00
2023-04-19T12:01:09.356Z,1.27
2023-04-19T12:03:49.381Z,1.00
2023-04-19T12:06:22.580Z,0.97
2023-04-19T12:08:55.374Z,1.03
2023-04-19T12:11:30.779Z,1.00
2023-04-19T12:14:12.553Z,1.00
2023-04-19T12:16:45.990Z,0.90
2023-04-19T12:19:18.710Z,1.23
2023-04-19T12:21:50.589Z,1.03
2023-04-19T12:24:21.791Z,0.90
2023-04-19T12:27:02.076Z,0.90
2023-04-19T12:29:34.524Z,1.00
2023-04-19T12:32:06.972Z,1.20
2023-04-19T12:34:38.550Z,1.23
2023-04-19T12:37:10.565Z,1.10
2023-04-19T12:39:41.994Z,1.10
2023-04-19T12:42:16.229Z,0.80
2023-04-19T12:44:47.806Z,0.70
2023-04-19T12:47:19.551Z,0.73
2023-04-19T12:49:50.833Z,0.90
2023-04-19T12:52:23.459Z,0.93
2023-04-19T12:54:54.992Z,0.80
2023-04-19T12:57:28.726Z,0.90
2023-04-19T13:00:01.310Z,0.90
2023-04-19T13:02:33.800Z,0.97
2023-04-19T13:05:06.607Z,1.00
2023-04-19T13:07:39.065Z,0.80
2023-04-19T13:10:11.812Z,1.20
2023-04-19T13:12:45.110Z,1.20
2023-04-19T13:15:17.010Z,1.33
2023-04-19T13:17:48.672Z,1.10
2023-04-19T13:20:21.548Z,0.93
2023-04-19T13:22:53.912Z,1.23
2023-04-19T13:25:25.028Z,1.13
2023-04-19T13:27:58.421Z,1.20
2023-04-19T13:30:30.566Z,1.40
2023-04-19T13:33:02.601Z,1.13
2023-04-19T13:35:34.959Z,1.10
2023-04-19T13:38:07.272Z,1.00
2023-04-19T13:40:38.199Z,1.17
2023-04-19T13:43:11.339Z,1.10
2023-04-19T13:45:42.864Z,1.33
2023-04-19T13:48:14.810Z,1.40
2023-04-19T13:50:47.523Z,1.00
2023-04-19T13:53:20.269Z,1.17
2023-04-19T13:55:51.739Z,1.20
2023-04-19T13:58:25.870Z,1.40
2023-04-19T14:00:57.667Z,1.37
2023-04-19T14:03:29.577Z,1.43
2023-04-19T14:06:01.491Z,1.50
2023-04-19T14:08:33.260Z,1.37
2023-04-19T14:11:05.261Z,1.47
2023-04-19T14:13:39.165Z,1.20
2023-04-19T14:16:11.398Z,1.63
2023-04-19T14:18:43.038Z,1.50
2023-04-19T14:21:14.493Z,1.30
2023-04-19T14:23:45.780Z,1.20
2023-04-19T14:26:16.870Z,1.40
2023-04-19T14:28:50.522Z,1.10
2023-04-19T14:31:22.125Z,1.00
2023-04-19T14:33:53.577Z,0.80
2023-04-19T14:36:27.992Z,0.90
2023-04-19T14:38:59.489Z,0.90
2023-04-19T14:41:31.295Z,1.07
2023-04-19T14:44:05.576Z,1.03
2023-04-19T14:46:37.121Z,1.00
2023-04-19T14:49:09.172Z,1.40
2023-04-19T14:51:41.025Z,1.03
2023-04-19T14:54:12.329Z,1.37
2023-04-19T14:56:43.881Z,0.90
2023-04-19T14:59:18.031Z,0.60
2023-04-19T15:01:49.705Z,0.97
2023-04-19T15:04:21.364Z,0.80
2023-04-19T15:06:53.097Z,0.80
2023-04-19T15:09:24.954Z,0.83
2023-04-19T15:11:56.835Z,0.80
2023-04-19T15:14:29.860Z,0.80
2023-04-19T15:17:01.495Z,0.77
2023-04-19T15:19:33.921Z,0.70
2023-04-19T15:22:07.807Z,0.80
2023-04-19T15:24:39.899Z,1.00
2023-04-19T15:27:12.158Z,0.90
2023-04-19T15:29:45.628Z,0.93
2023-04-19T15:32:17.179Z,1.10
2023-04-19T15:34:48.664Z,0.90
2023-04-19T15:37:20.257Z,0.97
2023-04-19T15:39:52.046Z,1.10
2023-04-19T15:42:23.436Z,1.10
2023-04-19T15:44:57.079Z,0.70
2023-04-19T15:47:29.053Z,1.23
2023-04-19T15:50:01.643Z,0.80
2023-04-19T15:52:33.566Z,0.73
2023-04-19T15:55:05.994Z,0.83
2023-04-19T15:57:37.967Z,0.73
2023-04-19T16:00:13.321Z,0.80
2023-04-19T16:02:44.905Z,0.83
2023-04-19T16:05:15.932Z,0.90
2023-04-19T16:07:47.237Z,0.60
2023-04-19T16:10:19.149Z,0.97
2023-04-19T16:12:50.720Z,0.70
2023-04-19T16:15:24.204Z,0.90
2023-04-19T16:17:56.310Z,0.70
2023-04-19T16:20:28.022Z,0.93
2023-04-19T16:23:03.879Z,1.03
2023-04-19T16:25:36.017Z,0.90
2023-04-19T16:28:07.539Z,1.67
2023-04-19T16:30:41.560Z,1.10
2023-04-19T16:33:13.715Z,0.93
2023-04-19T16:35:45.887Z,0.70
2023-04-19T16:38:18.255Z,1.40
2023-04-19T16:40:49.734Z,1.00
2023-04-19T16:43:21.910Z,1.30
2023-04-19T16:45:55.273Z,1.20
2023-04-19T16:48:27.044Z,1.20
2023-04-19T16:50:58.208Z,1.10
2023-04-19T16:53:29.235Z,1.00
2023-04-19T16:56:01.300Z,1.03
2023-04-19T16:58:33.041Z,0.80
2023-04-19T17:01:06.306Z,1.23
2023-04-19T17:03:38.030Z,1.00
2023-04-19T17:06:10.267Z,1.07
2023-04-19T17:08:41.569Z,0.97
2023-04-19T17:11:13.105Z,0.70
2023-04-19T17:13:44.321Z,0.80
2023-04-19T17:16:18.318Z,0.83
2023-04-19T17:18:49.892Z,0.87
2023-04-19T17:21:21.441Z,0.80
2023-04-19T17:23:56.385Z,1.00
2023-04-19T17:26:30.058Z,0.87
2023-04-19T17:29:02.188Z,0.80
2023-04-19T17:31:35.235Z,0.97
2023-04-19T17:34:06.284Z,0.87
2023-04-19T17:36:37.414Z,0.80
2023-04-19T17:39:09.347Z,0.70
2023-04-19T17:41:40.258Z,0.90
2023-04-19T17:44:11.240Z,1.07
2023-04-19T17:46:44.672Z,0.60
2023-04-19T17:49:15.924Z,0.97
2023-04-19T17:51:47.276Z,1.07
2023-04-19T17:54:20.605Z,0.97
2023-04-19T17:56:53.641Z,0.80
2023-04-19T17:59:25.175Z,1.00
2023-04-19T18:01:59.627Z,0.93
2023-04-19T18:04:31.771Z,1.07
2023-04-19T18:07:03.384Z,0.80
2023-04-19T18:09:34.505Z,0.87
2023-04-19T18:12:05.992Z,0.60
2023-04-19T18:14:38.038Z,1.03
2023-04-19T18:17:11.474Z,1.00
2023-04-19T18:19:42.634Z,0.80
2023-04-19T18:22:13.511Z,0.80
2023-04-19T18:24:46.742Z,1.13
2023-04-19T18:27:17.585Z,0.80
2023-04-19T18:29:48.389Z,0.90
2023-04-19T18:32:22.543Z,0.97
2023-04-19T18:34:53.343Z,0.90
2023-04-19T18:37:24.457Z,0.90
2023-04-19T18:39:55.800Z,0.90
2023-04-19T18:42:26.887Z,0.70
2023-04-19T18:44:57.657Z,0.70
2023-04-19T18:47:31.004Z,0.80
2023-04-19T18:50:05.629Z,0.80
2023-04-19T18:52:39.234Z,0.60
2023-04-19T18:55:12.602Z,0.90
2023-04-19T18:57:44.969Z,1.17
2023-04-19T19:00:16.769Z,0.70
2023-04-19T19:02:49.802Z,1.10
2023-04-19T19:05:22.042Z,0.77
2023-04-19T19:07:53.919Z,0.97
2023-04-19T19:10:53.972Z,0.80
2023-04-19T19:13:17.342Z,0.70
2023-04-19T19:15:48.196Z,0.97
2023-04-19T19:18:22.187Z,1.07
2023-04-19T19:20:53.177Z,1.00
2023-04-19T19:23:35.452Z,0.90
2023-04-19T19:26:07.010Z,1.00
2023-04-19T19:28:37.855Z,0.80
2023-04-19T19:31:09.479Z,0.73
2023-04-19T19:33:42.029Z,1.20
2023-04-19T19:36:12.917Z,1.23
2023-04-19T19:38:44.167Z,0.90
2023-04-19T19:43:49.684Z,0.90
2023-04-19T19:46:22.813Z,0.73
2023-04-19T19:48:56.835Z,0.60
2023-04-19T19:51:53.034Z,0.77
2023-04-19T19:54:20.581Z,0.90
2023-04-19T19:59:30.012Z,0.80
2023-04-19T20:02:02.881Z,0.90
2023-04-19T20:04:39.433Z,0.70
2023-04-19T20:07:29.424Z,0.70
2023-04-19T20:10:01.605Z,0.90
2023-04-19T20:12:32.639Z,0.93
2023-04-19T20:15:03.640Z,0.77
2023-04-19T20:17:34.992Z,1.10
2023-04-19T20:20:09.637Z,0.87
2023-04-19T20:22:40.788Z,0.80
2023-04-19T20:25:13.903Z,0.90
2023-04-19T20:27:45.185Z,1.37
2023-04-19T20:30:16.847Z,0.70
2023-04-19T20:32:49.455Z,1.17
2023-04-19T20:35:22.146Z,0.67
2023-04-19T20:37:54.145Z,0.60
2023-04-19T20:40:25.621Z,0.53
2023-04-19T20:42:56.897Z,0.67
2023-04-19T20:45:28.492Z,0.80
2023-04-19T20:47:59.404Z,0.70
2023-04-19T20:50:32.203Z,0.50
2023-04-19T20:53:03.953Z,0.63
2023-04-19T20:55:35.002Z,0.67
2023-04-19T20:58:06.370Z,0.50
2023-04-19T21:00:37.370Z,0.50
2023-04-19T21:03:09.316Z,0.70
2023-04-19T21:05:43.297Z,0.60
2023-04-19T21:08:15.856Z,0.67
2023-04-19T21:10:47.215Z,0.50
2023-04-19T21:13:18.137Z,1.00
2023-04-19T21:15:49.010Z,0.50
2023-04-19T21:18:20.130Z,0.60
2023-04-19T21:20:54.092Z,0.80
2023-04-19T21:23:25.340Z,0.80
2023-04-19T21:25:56.181Z,0.50
2023-04-19T21:28:27.741Z,0.60
2023-04-19T21:30:59.276Z,0.53
2023-04-19T21:33:30.712Z,0.70
2023-04-19T21:36:04.129Z,0.50
2023-04-19T21:38:34.898Z,0.43
2023-04-19T21:41:06.411Z,0.80
2023-04-19T21:43:37.490Z,0.90
2023-04-19T21:46:08.402Z,0.70
2023-04-19T21:48:40.138Z,1.70
2023-04-19T21:51:14.430Z,0.70
2023-04-19T21:53:45.336Z,0.50
2023-04-19T21:56:16.454Z,0.67
2023-04-19T21:58:47.380Z,0.80
2023-04-19T22:01:18.638Z,0.60
2023-04-19T22:03:49.867Z,0.47
2023-04-19T22:06:22.741Z,0.40
2023-04-19T22:08:53.498Z,0.60
2023-04-19T22:11:25.314Z,0.70
2023-04-19T22:13:56.304Z,0.50
2023-04-19T22:16:29.004Z,0.40
2023-04-19T22:19:00.739Z,0.60
2023-04-19T22:21:34.141Z,0.87
2023-04-19T22:24:05.457Z,0.60
2023-04-19T22:26:37.084Z,0.63
2023-04-19T22:29:08.038Z,0.90
2023-04-19T22:31:38.862Z,0.50
2023-04-19T22:34:09.662Z,0.60
2023-04-19T22:36:42.624Z,0.60
2023-04-19T22:39:14.977Z,0.60
2023-04-19T22:41:45.988Z,0.60
2023-04-19T22:44:17.671Z,0.70
2023-04-19T22:46:48.540Z,0.70
2023-04-19T22:49:22.836Z,0.80
2023-04-19T22:51:56.548Z,1.03
2023-04-19T22:54:27.380Z,1.10
2023-04-19T22:56:59.065Z,0.73
2023-04-19T22:59:30.122Z,0.63
2023-04-19T23:02:00.958Z,0.70
2023-04-19T23:04:36.663Z,0.60
2023-04-19T23:07:09.231Z,0.57
2023-04-19T23:09:41.315Z,0.60
2023-04-19T23:12:12.306Z,0.97
2023-04-19T23:14:43.796Z,0.70
2023-04-19T23:17:17.046Z,0.97
2023-04-19T23:19:47.903Z,0.80
2023-04-19T23:22:20.298Z,1.00
2023-04-19T23:24:51.383Z,0.60
2023-04-19T23:27:22.461Z,0.67
2023-04-19T23:29:53.259Z,0.60
2023-04-19T23:32:24.215Z,0.50
2023-04-19T23:34:55.355Z,0.70
2023-04-19T23:37:28.117Z,0.63
2023-04-19T23:39:58.912Z,0.50
2023-04-19T23:42:29.696Z,0.50
2023-04-19T23:45:01.423Z,0.60
2023-04-19T23:47:32.251Z,0.67
2023-04-19T23:50:04.153Z,0.63
2023-04-19T23:52:37.229Z,0.70
2023-04-19T23:55:08.751Z,0.73
2023-04-19T23:57:39.551Z,0.57
